sensor_id;sensor_type;location;lat;lon;timestamp;P1;durP1;ratioP1;P2;durP2;ratioP2
72771;SDS011;60894;42.544;1.516;2023-04-01T00:02:26;8.75;;;3.70;;
72771;SDS011;60894;42.544;1.516;2023-04-01T00:04:53;9.77;;;3.67;;
72771;SDS011;60894;42.544;1.516;2023-04-01T00:07:20;9.98;;;3.70;;
72771;SDS011;60894;42.544;1.516;2023-04-01T00:09:47;10.03;;;3.93;;
72771;SDS011;60894;42.544;1.516;2023-04-01T00:12:14;9.95;;;3.60;;
72771;SDS011;60894;42.544;1.516;2023-04-01T00:14:41;8.73;;;3.55;;
72771;SDS011;60894;42.544;1.516;2023-04-01T00:17:09;10.32;;;3.67;;
72771;SDS011;60894;42.544;1.516;2023-04-01T00:19:36;9.70;;;3.80;;
72771;SDS011;60894;42.544;1.516;2023-04-01T00:22:03;7.87;;;3.50;;
72771;SDS011;60894;42.544;1.516;2023-04-01T00:24:30;9.18;;;3.70;;
72771;SDS011;60894;42.544;1.516;2023-04-01T00:26:57;9.25;;;3.45;;
72771;SDS011;60894;42.544;1.516;2023-04-01T00:29:24;8.45;;;3.45;;
72771;SDS011;60894;42.544;1.516;2023-04-01T00:31:54;10.70;;;3.60;;
72771;SDS011;60894;42.544;1.516;2023-04-01T00:34:23;11.37;;;3.83;;
72771;SDS011;60894;42.544;1.516;2023-04-01T00:36:50;9.43;;;3.80;;
72771;SDS011;60894;42.544;1.516;2023-04-01T00:39:17;8.50;;;3.88;;
72771;SDS011;60894;42.544;1.516;2023-04-01T00:41:44;9.30;;;3.75;;
72771;SDS011;60894;42.544;1.516;2023-04-01T00:44:14;8.50;;;3.22;;
72771;SDS011;60894;42.544;1.516;2023-04-01T00:46:43;10.33;;;4.00;;
72771;SDS011;60894;42.544;1.516;2023-04-01T00:49:10;10.63;;;4.20;;
72771;SDS011;60894;42.544;1.516;2023-04-01T00:51:38;13.73;;;3.92;;
72771;SDS011;60894;42.544;1.516;2023-04-01T00:54:07;8.75;;;3.90;;
72771;SDS011;60894;42.544;1.516;2023-04-01T00:56:36;12.02;;;4.40;;
72771;SDS011;60894;42.544;1.516;2023-04-01T00:59:06;9.73;;;3.70;;
72771;SDS011;60894;42.544;1.516;2023-04-01T01:01:37;9.82;;;3.80;;
72771;SDS011;60894;42.544;1.516;2023-04-01T01:04:04;10.80;;;3.95;;
72771;SDS011;60894;42.544;1.516;2023-04-01T01:06:35;10.00;;;4.10;;
72771;SDS011;60894;42.544;1.516;2023-04-01T01:09:15;12.43;;;3.90;;
72771;SDS011;60894;42.544;1.516;2023-04-01T01:11:53;11.20;;;3.90;;
72771;SDS011;60894;42.544;1.516;2023-04-01T01:14:29;10.38;;;3.28;;
72771;SDS011;60894;42.544;1.516;2023-04-01T01:17:09;11.80;;;4.57;;
72771;SDS011;60894;42.544;1.516;2023-04-01T01:22:45;11.27;;;4.10;;
72771;SDS011;60894;42.544;1.516;2023-04-01T01:25:32;11.00;;;4.00;;
72771;SDS011;60894;42.544;1.516;2023-04-01T01:28:14;14.27;;;3.83;;
72771;SDS011;60894;42.544;1.516;2023-04-01T01:30:56;10.95;;;3.80;;
72771;SDS011;60894;42.544;1.516;2023-04-01T01:33:34;9.05;;;3.53;;
72771;SDS011;60894;42.544;1.516;2023-04-01T01:36:11;11.70;;;3.83;;
72771;SDS011;60894;42.544;1.516;2023-04-01T01:38:40;15.20;;;7.23;;
72771;SDS011;60894;42.544;1.516;2023-04-01T01:41:07;16.52;;;7.53;;
72771;SDS011;60894;42.544;1.516;2023-04-01T01:43:37;9.90;;;4.78;;
72771;SDS011;60894;42.544;1.516;2023-04-01T01:46:08;8.63;;;3.17;;
72771;SDS011;60894;42.544;1.516;2023-04-01T01:48:38;11.75;;;3.67;;
72771;SDS011;60894;42.544;1.516;2023-04-01T01:51:06;9.27;;;3.80;;
72771;SDS011;60894;42.544;1.516;2023-04-01T01:53:35;12.75;;;4.65;;
72771;SDS011;60894;42.544;1.516;2023-04-01T01:56:02;10.65;;;4.07;;
72771;SDS011;60894;42.544;1.516;2023-04-01T01:58:30;10.95;;;3.58;;
72771;SDS011;60894;42.544;1.516;2023-04-01T02:01:06;13.40;;;3.90;;
72771;SDS011;60894;42.544;1.516;2023-04-01T02:03:35;14.87;;;5.97;;
72771;SDS011;60894;42.544;1.516;2023-04-01T02:06:04;15.13;;;5.28;;
72771;SDS011;60894;42.544;1.516;2023-04-01T02:08:36;11.93;;;4.30;;
72771;SDS011;60894;42.544;1.516;2023-04-01T02:11:07;9.95;;;3.60;;
72771;SDS011;60894;42.544;1.516;2023-04-01T02:13:37;11.68;;;4.30;;
72771;SDS011;60894;42.544;1.516;2023-04-01T02:16:09;9.73;;;3.60;;
72771;SDS011;60894;42.544;1.516;2023-04-01T02:18:39;9.88;;;3.70;;
72771;SDS011;60894;42.544;1.516;2023-04-01T02:21:09;10.65;;;3.25;;
72771;SDS011;60894;42.544;1.516;2023-04-01T02:23:39;9.68;;;3.60;;
72771;SDS011;60894;42.544;1.516;2023-04-01T02:26:07;10.57;;;3.80;;
72771;SDS011;60894;42.544;1.516;2023-04-01T02:28:36;11.30;;;3.70;;
72771;SDS011;60894;42.544;1.516;2023-04-01T02:31:05;10.93;;;4.70;;
72771;SDS011;60894;42.544;1.516;2023-04-01T02:33:35;12.85;;;3.88;;
72771;SDS011;60894;42.544;1.516;2023-04-01T02:36:02;9.77;;;3.83;;
72771;SDS011;60894;42.544;1.516;2023-04-01T02:38:30;10.02;;;3.78;;
72771;SDS011;60894;42.544;1.516;2023-04-01T02:40:59;10.93;;;3.77;;
72771;SDS011;60894;42.544;1.516;2023-04-01T02:43:30;14.60;;;4.07;;
72771;SDS011;60894;42.544;1.516;2023-04-01T02:45:57;9.95;;;3.72;;
72771;SDS011;60894;42.544;1.516;2023-04-01T02:48:24;11.60;;;3.67;;
72771;SDS011;60894;42.544;1.516;2023-04-01T02:50:51;11.13;;;3.60;;
72771;SDS011;60894;42.544;1.516;2023-04-01T02:53:18;10.17;;;3.33;;
72771;SDS011;60894;42.544;1.516;2023-04-01T02:55:45;11.38;;;3.70;;
72771;SDS011;60894;42.544;1.516;2023-04-01T02:58:13;9.30;;;3.40;;
72771;SDS011;60894;42.544;1.516;2023-04-01T03:00:40;8.15;;;3.45;;
72771;SDS011;60894;42.544;1.516;2023-04-01T03:03:07;9.98;;;3.40;;
72771;SDS011;60894;42.544;1.516;2023-04-01T03:05:34;10.63;;;3.13;;
72771;SDS011;60894;42.544;1.516;2023-04-01T03:08:01;8.73;;;3.03;;
72771;SDS011;60894;42.544;1.516;2023-04-01T03:10:28;10.73;;;2.90;;
72771;SDS011;60894;42.544;1.516;2023-04-01T03:12:55;11.00;;;3.58;;
72771;SDS011;60894;42.544;1.516;2023-04-01T03:15:23;10.57;;;3.45;;
72771;SDS011;60894;42.544;1.516;2023-04-01T03:17:50;8.87;;;3.10;;
72771;SDS011;60894;42.544;1.516;2023-04-01T03:20:17;7.90;;;2.92;;
72771;SDS011;60894;42.544;1.516;2023-04-01T03:22:44;10.23;;;3.03;;
72771;SDS011;60894;42.544;1.516;2023-04-01T03:25:12;10.48;;;3.20;;
72771;SDS011;60894;42.544;1.516;2023-04-01T03:27:39;8.93;;;3.17;;
72771;SDS011;60894;42.544;1.516;2023-04-01T03:30:06;11.10;;;3.50;;
72771;SDS011;60894;42.544;1.516;2023-04-01T03:32:36;7.07;;;2.70;;
72771;SDS011;60894;42.544;1.516;2023-04-01T03:35:04;11.23;;;3.40;;
72771;SDS011;60894;42.544;1.516;2023-04-01T03:37:31;9.10;;;3.17;;
72771;SDS011;60894;42.544;1.516;2023-04-01T03:39:58;8.38;;;3.20;;
72771;SDS011;60894;42.544;1.516;2023-04-01T03:42:25;11.17;;;3.00;;
72771;SDS011;60894;42.544;1.516;2023-04-01T03:44:52;10.15;;;2.95;;
72771;SDS011;60894;42.544;1.516;2023-04-01T03:47:18;9.82;;;3.08;;
72771;SDS011;60894;42.544;1.516;2023-04-01T03:49:47;9.27;;;3.05;;
72771;SDS011;60894;42.544;1.516;2023-04-01T03:52:14;9.07;;;2.83;;
72771;SDS011;60894;42.544;1.516;2023-04-01T03:54:41;10.43;;;3.43;;
72771;SDS011;60894;42.544;1.516;2023-04-01T03:57:08;11.07;;;3.28;;
72771;SDS011;60894;42.544;1.516;2023-04-01T03:59:35;9.45;;;3.50;;
72771;SDS011;60894;42.544;1.516;2023-04-01T04:02:02;8.60;;;2.85;;
72771;SDS011;60894;42.544;1.516;2023-04-01T04:04:28;10.07;;;3.40;;
72771;SDS011;60894;42.544;1.516;2023-04-01T04:06:57;8.83;;;3.30;;
72771;SDS011;60894;42.544;1.516;2023-04-01T04:09:24;9.98;;;3.60;;
72771;SDS011;60894;42.544;1.516;2023-04-01T04:11:51;9.93;;;3.30;;
72771;SDS011;60894;42.544;1.516;2023-04-01T04:14:18;9.10;;;3.05;;
72771;SDS011;60894;42.544;1.516;2023-04-01T04:16:45;10.18;;;2.75;;
72771;SDS011;60894;42.544;1.516;2023-04-01T04:19:11;12.07;;;3.30;;
72771;SDS011;60894;42.544;1.516;2023-04-01T04:21:39;9.50;;;2.72;;
72771;SDS011;60894;42.544;1.516;2023-04-01T04:24:07;11.63;;;3.20;;
72771;SDS011;60894;42.544;1.516;2023-04-01T04:26:35;9.20;;;3.00;;
72771;SDS011;60894;42.544;1.516;2023-04-01T04:29:02;10.98;;;2.97;;
72771;SDS011;60894;42.544;1.516;2023-04-01T04:31:29;11.67;;;3.63;;
72771;SDS011;60894;42.544;1.516;2023-04-01T04:33:56;10.90;;;2.92;;
72771;SDS011;60894;42.544;1.516;2023-04-01T04:36:24;9.32;;;3.15;;
72771;SDS011;60894;42.544;1.516;2023-04-01T04:38:51;11.18;;;3.10;;
72771;SDS011;60894;42.544;1.516;2023-04-01T04:41:24;8.43;;;3.08;;
72771;SDS011;60894;42.544;1.516;2023-04-01T04:43:52;9.30;;;2.83;;
72771;SDS011;60894;42.544;1.516;2023-04-01T04:46:20;11.23;;;3.45;;
72771;SDS011;60894;42.544;1.516;2023-04-01T04:48:48;9.02;;;2.70;;
72771;SDS011;60894;42.544;1.516;2023-04-01T04:51:15;12.07;;;2.70;;
72771;SDS011;60894;42.544;1.516;2023-04-01T04:53:42;8.48;;;2.70;;
72771;SDS011;60894;42.544;1.516;2023-04-01T04:56:10;10.93;;;3.20;;
72771;SDS011;60894;42.544;1.516;2023-04-01T04:58:38;8.82;;;3.03;;
72771;SDS011;60894;42.544;1.516;2023-04-01T05:01:06;7.47;;;2.88;;
72771;SDS011;60894;42.544;1.516;2023-04-01T05:03:35;9.18;;;2.85;;
72771;SDS011;60894;42.544;1.516;2023-04-01T05:06:02;11.07;;;3.78;;
72771;SDS011;60894;42.544;1.516;2023-04-01T05:08:30;9.60;;;3.00;;
72771;SDS011;60894;42.544;1.516;2023-04-01T05:10:57;9.60;;;3.00;;
72771;SDS011;60894;42.544;1.516;2023-04-01T05:13:24;7.85;;;2.50;;
72771;SDS011;60894;42.544;1.516;2023-04-01T05:15:53;9.07;;;2.60;;
72771;SDS011;60894;42.544;1.516;2023-04-01T05:18:20;8.23;;;2.80;;
72771;SDS011;60894;42.544;1.516;2023-04-01T05:20:47;9.93;;;2.87;;
72771;SDS011;60894;42.544;1.516;2023-04-01T05:23:15;10.82;;;3.45;;
72771;SDS011;60894;42.544;1.516;2023-04-01T05:25:42;6.35;;;2.80;;
72771;SDS011;60894;42.544;1.516;2023-04-01T05:28:10;8.90;;;3.17;;
72771;SDS011;60894;42.544;1.516;2023-04-01T05:30:39;9.43;;;3.50;;
72771;SDS011;60894;42.544;1.516;2023-04-01T05:33:08;11.07;;;3.33;;
72771;SDS011;60894;42.544;1.516;2023-04-01T05:35:35;9.48;;;3.10;;
72771;SDS011;60894;42.544;1.516;2023-04-01T05:38:02;9.65;;;3.20;;
72771;SDS011;60894;42.544;1.516;2023-04-01T05:40:29;8.85;;;2.85;;
72771;SDS011;60894;42.544;1.516;2023-04-01T05:42:57;11.43;;;3.40;;
72771;SDS011;60894;42.544;1.516;2023-04-01T05:45:24;10.23;;;3.67;;
72771;SDS011;60894;42.544;1.516;2023-04-01T05:47:51;9.50;;;2.80;;
72771;SDS011;60894;42.544;1.516;2023-04-01T05:50:20;9.32;;;3.10;;
72771;SDS011;60894;42.544;1.516;2023-04-01T05:52:47;9.27;;;2.95;;
72771;SDS011;60894;42.544;1.516;2023-04-01T05:55:14;7.70;;;2.63;;
72771;SDS011;60894;42.544;1.516;2023-04-01T05:57:41;9.10;;;2.67;;
72771;SDS011;60894;42.544;1.516;2023-04-01T06:00:08;9.93;;;2.50;;
72771;SDS011;60894;42.544;1.516;2023-04-01T06:02:37;11.90;;;2.90;;
72771;SDS011;60894;42.544;1.516;2023-04-01T06:05:11;8.18;;;2.53;;
72771;SDS011;60894;42.544;1.516;2023-04-01T06:07:42;9.15;;;2.80;;
72771;SDS011;60894;42.544;1.516;2023-04-01T06:10:10;10.70;;;3.60;;
72771;SDS011;60894;42.544;1.516;2023-04-01T06:12:41;8.77;;;3.10;;
72771;SDS011;60894;42.544;1.516;2023-04-01T06:15:22;12.05;;;3.70;;
72771;SDS011;60894;42.544;1.516;2023-04-01T06:18:01;13.38;;;7.43;;
72771;SDS011;60894;42.544;1.516;2023-04-01T06:20:44;8.52;;;3.22;;
72771;SDS011;60894;42.544;1.516;2023-04-01T06:23:24;8.13;;;2.80;;
72771;SDS011;60894;42.544;1.516;2023-04-01T06:26:03;9.40;;;2.97;;
72771;SDS011;60894;42.544;1.516;2023-04-01T06:34:45;9.95;;;2.88;;
72771;SDS011;60894;42.544;1.516;2023-04-01T06:43:13;9.07;;;2.35;;
72771;SDS011;60894;42.544;1.516;2023-04-01T06:45:47;10.35;;;2.65;;
72771;SDS011;60894;42.544;1.516;2023-04-01T06:48:31;6.93;;;2.35;;
72771;SDS011;60894;42.544;1.516;2023-04-01T06:51:12;8.00;;;2.10;;
72771;SDS011;60894;42.544;1.516;2023-04-01T06:53:49;8.15;;;2.90;;
72771;SDS011;60894;42.544;1.516;2023-04-01T06:56:25;7.40;;;2.63;;
72771;SDS011;60894;42.544;1.516;2023-04-01T06:58:55;8.13;;;2.80;;
72771;SDS011;60894;42.544;1.516;2023-04-01T07:01:28;6.70;;;2.85;;
72771;SDS011;60894;42.544;1.516;2023-04-01T07:04:00;9.70;;;2.80;;
72771;SDS011;60894;42.544;1.516;2023-04-01T07:06:31;8.15;;;2.97;;
72771;SDS011;60894;42.544;1.516;2023-04-01T07:09:02;14.55;;;4.38;;
72771;SDS011;60894;42.544;1.516;2023-04-01T07:11:34;9.55;;;2.80;;
72771;SDS011;60894;42.544;1.516;2023-04-01T07:14:04;8.25;;;2.75;;
72771;SDS011;60894;42.544;1.516;2023-04-01T07:16:39;9.80;;;3.53;;
72771;SDS011;60894;42.544;1.516;2023-04-01T07:19:12;7.22;;;2.70;;
72771;SDS011;60894;42.544;1.516;2023-04-01T07:21:45;7.13;;;2.70;;
72771;SDS011;60894;42.544;1.516;2023-04-01T07:24:17;10.05;;;2.90;;
72771;SDS011;60894;42.544;1.516;2023-04-01T07:26:49;9.70;;;3.47;;
72771;SDS011;60894;42.544;1.516;2023-04-01T07:29:19;7.37;;;2.63;;
72771;SDS011;60894;42.544;1.516;2023-04-01T07:37:31;4.35;;;1.42;;
72771;SDS011;60894;42.544;1.516;2023-04-01T07:40:07;4.97;;;1.50;;
72771;SDS011;60894;42.544;1.516;2023-04-01T07:42:47;3.90;;;1.50;;
72771;SDS011;60894;42.544;1.516;2023-04-01T07:45:31;2.45;;;1.00;;
72771;SDS011;60894;42.544;1.516;2023-04-01T07:48:09;5.32;;;1.20;;
72771;SDS011;60894;42.544;1.516;2023-04-01T07:50:46;5.18;;;1.10;;
72771;SDS011;60894;42.544;1.516;2023-04-01T07:53:20;4.85;;;1.40;;
72771;SDS011;60894;42.544;1.516;2023-04-01T07:55:57;3.70;;;1.50;;
72771;SDS011;60894;42.544;1.516;2023-04-01T07:58:33;4.22;;;1.33;;
72771;SDS011;60894;42.544;1.516;2023-04-01T08:01:13;4.88;;;1.48;;
72771;SDS011;60894;42.544;1.516;2023-04-01T08:03:56;3.80;;;1.38;;
72771;SDS011;60894;42.544;1.516;2023-04-01T08:06:37;4.57;;;1.65;;
72771;SDS011;60894;42.544;1.516;2023-04-01T08:09:14;5.10;;;1.77;;
72771;SDS011;60894;42.544;1.516;2023-04-01T08:11:59;10.70;;;2.30;;
72771;SDS011;60894;42.544;1.516;2023-04-01T08:14:36;5.88;;;2.00;;
72771;SDS011;60894;42.544;1.516;2023-04-01T08:17:10;7.05;;;2.63;;
72771;SDS011;60894;42.544;1.516;2023-04-01T08:19:46;7.85;;;2.00;;
72771;SDS011;60894;42.544;1.516;2023-04-01T08:22:23;6.93;;;2.40;;
72771;SDS011;60894;42.544;1.516;2023-04-01T08:24:54;5.95;;;2.05;;
72771;SDS011;60894;42.544;1.516;2023-04-01T08:27:26;11.52;;;2.30;;
72771;SDS011;60894;42.544;1.516;2023-04-01T08:30:04;5.65;;;2.00;;
72771;SDS011;60894;42.544;1.516;2023-04-01T08:32:42;5.43;;;2.10;;
72771;SDS011;60894;42.544;1.516;2023-04-01T08:35:14;5.83;;;1.93;;
72771;SDS011;60894;42.544;1.516;2023-04-01T08:37:46;9.82;;;3.13;;
72771;SDS011;60894;42.544;1.516;2023-04-01T08:40:25;22.80;;;5.47;;
72771;SDS011;60894;42.544;1.516;2023-04-01T08:43:06;12.30;;;3.55;;
72771;SDS011;60894;42.544;1.516;2023-04-01T08:48:48;10.87;;;2.43;;
72771;SDS011;60894;42.544;1.516;2023-04-01T08:51:36;7.95;;;2.10;;
72771;SDS011;60894;42.544;1.516;2023-04-01T08:54:33;6.15;;;1.90;;
72771;SDS011;60894;42.544;1.516;2023-04-01T08:57:10;4.82;;;2.10;;
72771;SDS011;60894;42.544;1.516;2023-04-01T08:59:57;12.15;;;2.55;;
72771;SDS011;60894;42.544;1.516;2023-04-01T09:02:49;6.37;;;1.80;;
72771;SDS011;60894;42.544;1.516;2023-04-01T09:05:38;5.82;;;1.83;;
72771;SDS011;60894;42.544;1.516;2023-04-01T09:08:28;7.60;;;2.17;;
72771;SDS011;60894;42.544;1.516;2023-04-01T09:11:11;8.27;;;2.00;;
72771;SDS011;60894;42.544;1.516;2023-04-01T09:17:05;7.60;;;2.00;;
72771;SDS011;60894;42.544;1.516;2023-04-01T09:20:07;7.55;;;2.20;;
72771;SDS011;60894;42.544;1.516;2023-04-01T09:23:14;3.90;;;1.55;;
72771;SDS011;60894;42.544;1.516;2023-04-01T09:25:58;6.45;;;2.00;;
72771;SDS011;60894;42.544;1.516;2023-04-01T09:28:38;4.97;;;1.70;;
72771;SDS011;60894;42.544;1.516;2023-04-01T09:31:20;5.77;;;1.93;;
72771;SDS011;60894;42.544;1.516;2023-04-01T09:34:08;4.88;;;1.70;;
72771;SDS011;60894;42.544;1.516;2023-04-01T09:36:54;4.95;;;1.70;;
72771;SDS011;60894;42.544;1.516;2023-04-01T09:39:42;5.40;;;1.60;;
72771;SDS011;60894;42.544;1.516;2023-04-01T09:42:29;5.47;;;2.25;;
72771;SDS011;60894;42.544;1.516;2023-04-01T09:45:09;5.13;;;2.03;;
72771;SDS011;60894;42.544;1.516;2023-04-01T09:47:50;6.47;;;1.70;;
72771;SDS011;60894;42.544;1.516;2023-04-01T09:53:19;7.25;;;1.50;;
72771;SDS011;60894;42.544;1.516;2023-04-01T10:05:15;6.85;;;2.80;;
72771;SDS011;60894;42.544;1.516;2023-04-01T10:11:35;4.35;;;1.33;;
72771;SDS011;60894;42.544;1.516;2023-04-01T10:14:44;3.63;;;1.30;;
72771;SDS011;60894;42.544;1.516;2023-04-01T10:17:41;3.97;;;1.40;;
72771;SDS011;60894;42.544;1.516;2023-04-01T10:20:46;5.45;;;1.40;;
72771;SDS011;60894;42.544;1.516;2023-04-01T10:26:38;4.78;;;1.88;;
72771;SDS011;60894;42.544;1.516;2023-04-01T10:29:36;5.10;;;1.50;;
72771;SDS011;60894;42.544;1.516;2023-04-01T10:35:20;3.20;;;1.00;;
72771;SDS011;60894;42.544;1.516;2023-04-01T10:50:36;2.22;;;0.90;;
72771;SDS011;60894;42.544;1.516;2023-04-01T10:59:17;2.40;;;0.80;;
72771;SDS011;60894;42.544;1.516;2023-04-01T11:11:59;4.22;;;0.90;;
72771;SDS011;60894;42.544;1.516;2023-04-01T11:15:14;3.60;;;0.90;;
72771;SDS011;60894;42.544;1.516;2023-04-01T11:18:03;1.92;;;0.90;;
72771;SDS011;60894;42.544;1.516;2023-04-01T11:21:15;2.58;;;0.80;;
72771;SDS011;60894;42.544;1.516;2023-04-01T11:24:15;2.40;;;0.80;;
72771;SDS011;60894;42.544;1.516;2023-04-01T11:27:04;2.85;;;0.80;;
72771;SDS011;60894;42.544;1.516;2023-04-01T11:32:42;1.42;;;0.70;;
72771;SDS011;60894;42.544;1.516;2023-04-01T11:35:25;3.72;;;1.20;;
72771;SDS011;60894;42.544;1.516;2023-04-01T11:38:08;3.03;;;0.73;;
72771;SDS011;60894;42.544;1.516;2023-04-01T11:40:47;2.38;;;0.90;;
72771;SDS011;60894;42.544;1.516;2023-04-01T11:43:21;3.03;;;0.83;;
72771;SDS011;60894;42.544;1.516;2023-04-01T11:45:56;2.17;;;0.80;;
72771;SDS011;60894;42.544;1.516;2023-04-01T11:48:37;2.38;;;0.90;;
72771;SDS011;60894;42.544;1.516;2023-04-01T11:51:16;2.85;;;0.80;;
72771;SDS011;60894;42.544;1.516;2023-04-01T11:54:14;2.90;;;0.80;;
72771;SDS011;60894;42.544;1.516;2023-04-01T11:56:57;1.07;;;0.50;;
72771;SDS011;60894;42.544;1.516;2023-04-01T11:59:36;2.55;;;0.70;;
72771;SDS011;60894;42.544;1.516;2023-04-01T12:02:33;2.33;;;1.00;;
72771;SDS011;60894;42.544;1.516;2023-04-01T12:05:19;1.95;;;0.70;;
72771;SDS011;60894;42.544;1.516;2023-04-01T12:07:57;1.25;;;0.60;;
72771;SDS011;60894;42.544;1.516;2023-04-01T12:10:33;2.80;;;0.90;;
72771;SDS011;60894;42.544;1.516;2023-04-01T12:13:09;2.75;;;0.70;;
72771;SDS011;60894;42.544;1.516;2023-04-01T12:15:51;1.63;;;0.68;;
72771;SDS011;60894;42.544;1.516;2023-04-01T12:18:26;1.30;;;0.63;;
72771;SDS011;60894;42.544;1.516;2023-04-01T12:21:02;2.88;;;0.82;;
72771;SDS011;60894;42.544;1.516;2023-04-01T12:24:01;2.57;;;0.63;;
72771;SDS011;60894;42.544;1.516;2023-04-01T12:27:04;1.52;;;0.70;;
72771;SDS011;60894;42.544;1.516;2023-04-01T12:30:01;4.35;;;1.60;;
72771;SDS011;60894;42.544;1.516;2023-04-01T12:32:37;2.28;;;0.80;;
72771;SDS011;60894;42.544;1.516;2023-04-01T12:35:13;2.20;;;0.80;;
72771;SDS011;60894;42.544;1.516;2023-04-01T12:37:48;3.53;;;0.70;;
72771;SDS011;60894;42.544;1.516;2023-04-01T12:40:29;1.75;;;0.65;;
72771;SDS011;60894;42.544;1.516;2023-04-01T12:43:15;2.10;;;0.80;;
72771;SDS011;60894;42.544;1.516;2023-04-01T12:45:54;1.30;;;0.60;;
72771;SDS011;60894;42.544;1.516;2023-04-01T12:48:36;1.38;;;0.50;;
72771;SDS011;60894;42.544;1.516;2023-04-01T12:51:17;1.50;;;0.40;;
72771;SDS011;60894;42.544;1.516;2023-04-01T12:57:05;2.30;;;0.70;;
72771;SDS011;60894;42.544;1.516;2023-04-01T12:59:51;0.63;;;0.40;;
72771;SDS011;60894;42.544;1.516;2023-04-01T13:02:40;1.90;;;0.60;;
72771;SDS011;60894;42.544;1.516;2023-04-01T13:05:32;2.03;;;0.70;;
72771;SDS011;60894;42.544;1.516;2023-04-01T13:08:21;3.72;;;1.05;;
72771;SDS011;60894;42.544;1.516;2023-04-01T13:11:07;2.72;;;0.80;;
72771;SDS011;60894;42.544;1.516;2023-04-01T13:16:41;2.25;;;0.70;;
72771;SDS011;60894;42.544;1.516;2023-04-01T13:19:16;1.53;;;0.70;;
72771;SDS011;60894;42.544;1.516;2023-04-01T13:21:50;1.42;;;0.65;;
72771;SDS011;60894;42.544;1.516;2023-04-01T13:27:20;1.15;;;0.77;;
72771;SDS011;60894;42.544;1.516;2023-04-01T13:30:00;4.88;;;2.03;;
72771;SDS011;60894;42.544;1.516;2023-04-01T13:32:40;2.10;;;0.70;;
72771;SDS011;60894;42.544;1.516;2023-04-01T13:35:19;1.73;;;0.70;;
72771;SDS011;60894;42.544;1.516;2023-04-01T13:37:54;1.40;;;0.43;;
72771;SDS011;60894;42.544;1.516;2023-04-01T13:40:43;2.13;;;0.70;;
72771;SDS011;60894;42.544;1.516;2023-04-01T13:43:19;2.63;;;0.80;;
72771;SDS011;60894;42.544;1.516;2023-04-01T13:45:58;2.57;;;0.80;;
72771;SDS011;60894;42.544;1.516;2023-04-01T13:51:52;1.58;;;0.80;;
72771;SDS011;60894;42.544;1.516;2023-04-01T13:54:49;1.98;;;0.60;;
72771;SDS011;60894;42.544;1.516;2023-04-01T13:57:40;2.30;;;0.73;;
72771;SDS011;60894;42.544;1.516;2023-04-01T14:00:25;1.47;;;0.73;;
72771;SDS011;60894;42.544;1.516;2023-04-01T14:03:19;3.58;;;1.20;;
72771;SDS011;60894;42.544;1.516;2023-04-01T14:06:02;6.18;;;1.50;;
72771;SDS011;60894;42.544;1.516;2023-04-01T14:08:40;7.88;;;1.40;;
72771;SDS011;60894;42.544;1.516;2023-04-01T14:11:19;3.42;;;1.33;;
72771;SDS011;60894;42.544;1.516;2023-04-01T14:13:56;4.50;;;1.30;;
72771;SDS011;60894;42.544;1.516;2023-04-01T14:19:44;5.70;;;1.50;;
72771;SDS011;60894;42.544;1.516;2023-04-01T14:22:27;3.95;;;1.52;;
72771;SDS011;60894;42.544;1.516;2023-04-01T14:25:03;5.25;;;1.60;;
72771;SDS011;60894;42.544;1.516;2023-04-01T14:27:45;6.67;;;1.93;;
72771;SDS011;60894;42.544;1.516;2023-04-01T14:33:21;4.30;;;1.85;;
72771;SDS011;60894;42.544;1.516;2023-04-01T14:35:59;5.13;;;1.80;;
72771;SDS011;60894;42.544;1.516;2023-04-01T14:38:47;5.65;;;1.80;;
72771;SDS011;60894;42.544;1.516;2023-04-01T14:41:24;5.43;;;1.90;;
72771;SDS011;60894;42.544;1.516;2023-04-01T14:44:04;3.90;;;1.10;;
72771;SDS011;60894;42.544;1.516;2023-04-01T14:50:02;3.15;;;0.80;;
72771;SDS011;60894;42.544;1.516;2023-04-01T14:52:35;2.15;;;0.70;;
72771;SDS011;60894;42.544;1.516;2023-04-01T14:55:10;3.53;;;0.70;;
72771;SDS011;60894;42.544;1.516;2023-04-01T14:57:57;2.45;;;0.60;;
72771;SDS011;60894;42.544;1.516;2023-04-01T15:00:26;2.97;;;0.70;;
72771;SDS011;60894;42.544;1.516;2023-04-01T15:02:56;1.60;;;0.60;;
72771;SDS011;60894;42.544;1.516;2023-04-01T15:05:37;1.75;;;0.70;;
72771;SDS011;60894;42.544;1.516;2023-04-01T15:08:19;3.40;;;0.93;;
72771;SDS011;60894;42.544;1.516;2023-04-01T15:13:53;2.92;;;0.80;;
72771;SDS011;60894;42.544;1.516;2023-04-01T15:16:41;2.08;;;0.70;;
72771;SDS011;60894;42.544;1.516;2023-04-01T15:19:18;2.88;;;1.00;;
72771;SDS011;60894;42.544;1.516;2023-04-01T15:21:59;2.77;;;0.80;;
72771;SDS011;60894;42.544;1.516;2023-04-01T15:24:43;2.03;;;1.00;;
72771;SDS011;60894;42.544;1.516;2023-04-01T15:27:20;3.03;;;0.95;;
72771;SDS011;60894;42.544;1.516;2023-04-01T15:30:07;1.67;;;0.98;;
72771;SDS011;60894;42.544;1.516;2023-04-01T15:32:46;0.85;;;0.60;;
72771;SDS011;60894;42.544;1.516;2023-04-01T15:35:27;3.53;;;1.00;;
72771;SDS011;60894;42.544;1.516;2023-04-01T15:38:06;5.53;;;1.60;;
72771;SDS011;60894;42.544;1.516;2023-04-01T15:40:42;5.15;;;1.25;;
72771;SDS011;60894;42.544;1.516;2023-04-01T15:43:15;4.97;;;1.55;;
72771;SDS011;60894;42.544;1.516;2023-04-01T15:45:51;4.13;;;1.52;;
72771;SDS011;60894;42.544;1.516;2023-04-01T15:48:31;6.40;;;2.13;;
72771;SDS011;60894;42.544;1.516;2023-04-01T15:51:09;6.13;;;1.73;;
72771;SDS011;60894;42.544;1.516;2023-04-01T15:53:50;4.32;;;1.58;;
72771;SDS011;60894;42.544;1.516;2023-04-01T15:56:27;4.88;;;1.73;;
72771;SDS011;60894;42.544;1.516;2023-04-01T15:59:07;6.05;;;1.67;;
72771;SDS011;60894;42.544;1.516;2023-04-01T16:01:46;5.93;;;2.10;;
72771;SDS011;60894;42.544;1.516;2023-04-01T16:04:29;6.13;;;1.60;;
72771;SDS011;60894;42.544;1.516;2023-04-01T16:07:10;9.93;;;4.47;;
72771;SDS011;60894;42.544;1.516;2023-04-01T16:10:09;5.72;;;2.17;;
72771;SDS011;60894;42.544;1.516;2023-04-01T16:13:01;7.35;;;1.90;;
72771;SDS011;60894;42.544;1.516;2023-04-01T16:15:38;6.10;;;1.70;;
72771;SDS011;60894;42.544;1.516;2023-04-01T16:18:22;2.45;;;0.90;;
72771;SDS011;60894;42.544;1.516;2023-04-01T16:21:07;1.88;;;0.65;;
72771;SDS011;60894;42.544;1.516;2023-04-01T16:23:40;2.13;;;0.90;;
72771;SDS011;60894;42.544;1.516;2023-04-01T16:26:14;3.10;;;0.80;;
72771;SDS011;60894;42.544;1.516;2023-04-01T16:28:50;0.63;;;0.43;;
72771;SDS011;60894;42.544;1.516;2023-04-01T16:31:27;2.78;;;0.40;;
72771;SDS011;60894;42.544;1.516;2023-04-01T16:34:00;0.85;;;0.40;;
72771;SDS011;60894;42.544;1.516;2023-04-01T16:36:33;1.27;;;0.50;;
72771;SDS011;60894;42.544;1.516;2023-04-01T16:39:20;2.03;;;0.65;;
72771;SDS011;60894;42.544;1.516;2023-04-01T16:41:59;0.47;;;0.30;;
72771;SDS011;60894;42.544;1.516;2023-04-01T16:44:46;2.10;;;0.60;;
72771;SDS011;60894;42.544;1.516;2023-04-01T16:47:18;1.15;;;0.43;;
72771;SDS011;60894;42.544;1.516;2023-04-01T16:49:47;1.27;;;0.32;;
72771;SDS011;60894;42.544;1.516;2023-04-01T16:52:29;1.55;;;0.30;;
72771;SDS011;60894;42.544;1.516;2023-04-01T16:55:02;1.43;;;0.40;;
72771;SDS011;60894;42.544;1.516;2023-04-01T16:57:36;1.40;;;0.30;;
72771;SDS011;60894;42.544;1.516;2023-04-01T17:00:16;1.45;;;0.30;;
72771;SDS011;60894;42.544;1.516;2023-04-01T17:02:52;2.15;;;0.45;;
72771;SDS011;60894;42.544;1.516;2023-04-01T17:05:37;0.50;;;0.30;;
72771;SDS011;60894;42.544;1.516;2023-04-01T17:08:10;0.43;;;0.27;;
72771;SDS011;60894;42.544;1.516;2023-04-01T17:10:48;0.20;;;0.10;;
72771;SDS011;60894;42.544;1.516;2023-04-01T17:13:32;1.92;;;0.50;;
72771;SDS011;60894;42.544;1.516;2023-04-01T17:16:30;0.90;;;0.50;;
72771;SDS011;60894;42.544;1.516;2023-04-01T17:19:14;0.55;;;0.38;;
72771;SDS011;60894;42.544;1.516;2023-04-01T17:21:54;3.83;;;0.57;;
72771;SDS011;60894;42.544;1.516;2023-04-01T17:24:30;3.00;;;0.68;;